^^
Saratoga-Weather Station Historical Data
Daily Summary for July 21, 2020 Units:  Both    English   Metric
Daily Weekly Monthly Yearly Custom
  High: Low: Average:
Temperature: 77.5 °F /  25.3 °C 58.8 °F /  14.9 °C 65.3 °F /  18.5 °C
Dew Point: 53.2 °F /  11.8 °C 42.6 °F /  5.9 °C 49.5 °F /  9.7 °C
Humidity: 68% 30% 58%
Wind Speed: 8.9mph /  14.3km/h - 2.4mph /  3.8km/h
Wind Gust: 11mph /  17.7km/h - -
Wind- - SW
Pressure: 30.2 in /  1021.3 hPa 30.1 in /  1019.0 hPa -
Precipitation: 0 in /  0.0 mm    
Historical Graphs
 
 
Tabular Data for July 21, 2020
Time Temperature Dew Point Pressure Wind Wind Speed Wind Gust Humidity Rainfall Rate (Hourly) solar
00:04 65.7 °F /  18.7 °C 53.2 °F /  11.8 °C 30.1in /  1019.0hPa NW 2mph /  3.2km/h 5mph /  8km/h 64% 0in /  0.0mm 0 W/m2
00:10 65.7 °F /  18.7 °C 53.2 °F /  11.8 °C 30.1in /  1019.0hPa NNE 2.9mph /  4.7km/h 4mph /  6.4km/h 64% 0in /  0.0mm 0 W/m2
00:15 65.7 °F /  18.7 °C 53.2 °F /  11.8 °C 30.1in /  1019.0hPa WNW 2.9mph /  4.7km/h 4mph /  6.4km/h 64% 0in /  0.0mm 0 W/m2
00:20 65.5 °F /  18.6 °C 52.5 °F /  11.4 °C 30.1in /  1019.0hPa SE 2mph /  3.2km/h 9mph /  14.5km/h 63% 0in /  0.0mm 0 W/m2
00:25 65.5 °F /  18.6 °C 52.5 °F /  11.4 °C 30.1in /  1019.0hPa NW 2mph /  3.2km/h 4mph /  6.4km/h 63% 0in /  0.0mm 0 W/m2
00:30 65.5 °F /  18.6 °C 52.5 °F /  11.4 °C 30.1in /  1019.0hPa NW 0.9mph /  1.4km/h 9mph /  14.5km/h 63% 0in /  0.0mm 0 W/m2
00:35 65.3 °F /  18.5 °C 52 °F /  11.1 °C 30.1in /  1019.0hPa WNW 2mph /  3.2km/h 6mph /  9.7km/h 62% 0in /  0.0mm 0 W/m2
00:40 65.3 °F /  18.5 °C 52 °F /  11.1 °C 30.1in /  1019.0hPa WNW 2.9mph /  4.7km/h 8mph /  12.9km/h 62% 0in /  0.0mm 0 W/m2
00:45 65.1 °F /  18.4 °C 51.8 °F /  11 °C 30.1in /  1019.0hPa West 2.9mph /  4.7km/h 6mph /  9.7km/h 62% 0in /  0.0mm 0 W/m2
00:50 65.1 °F /  18.4 °C 51.8 °F /  11 °C 30.1in /  1019.0hPa WNW 2mph /  3.2km/h 8mph /  12.9km/h 62% 0in /  0.0mm 0 W/m2
00:55 65.1 °F /  18.4 °C 51.8 °F /  11 °C 30.1in /  1019.0hPa NNW 2mph /  3.2km/h 3mph /  4.8km/h 62% 0in /  0.0mm 0 W/m2
01:00 64.9 °F /  18.3 °C 51.6 °F /  10.9 °C 30.1in /  1019.3hPa WSW 0.9mph /  1.4km/h 4mph /  6.4km/h 62% 0in /  0.0mm 0 W/m2
01:05 64.9 °F /  18.3 °C 51.6 °F /  10.9 °C 30.1in /  1019.3hPa NW 0.9mph /  1.4km/h 4mph /  6.4km/h 62% 0in /  0.0mm 0 W/m2
01:10 64.9 °F /  18.3 °C 51.6 °F /  10.9 °C 30.1in /  1019.3hPa WNW 0.9mph /  1.4km/h 7mph /  11.3km/h 62% 0in /  0.0mm 0 W/m2
01:15 64.9 °F /  18.3 °C 51.6 °F /  10.9 °C 30.1in /  1019.3hPa West 2mph /  3.2km/h 4mph /  6.4km/h 62% 0in /  0.0mm 0 W/m2
01:20 64.9 °F /  18.3 °C 51.6 °F /  10.9 °C 30.1in /  1019.3hPa NNW 2.9mph /  4.7km/h 6mph /  9.7km/h 62% 0in /  0.0mm 0 W/m2
01:25 64.9 °F /  18.3 °C 51.1 °F /  10.6 °C 30.1in /  1019.3hPa West 4mph /  6.4km/h 6mph /  9.7km/h 61% 0in /  0.0mm 0 W/m2
01:30 64.9 °F /  18.3 °C 51.1 °F /  10.6 °C 30.1in /  1019.3hPa WNW 2mph /  3.2km/h 4mph /  6.4km/h 61% 0in /  0.0mm 0 W/m2
01:35 64.9 °F /  18.3 °C 51.6 °F /  10.9 °C 30.1in /  1019.6hPa WNW 2mph /  3.2km/h 9mph /  14.5km/h 62% 0in /  0.0mm 0 W/m2
01:40 64.8 °F /  18.2 °C 51.4 °F /  10.8 °C 30.1in /  1019.6hPa WSW 2.9mph /  4.7km/h 3mph /  4.8km/h 62% 0in /  0.0mm 0 W/m2
01:45 64.6 °F /  18.1 °C 51.6 °F /  10.9 °C 30.1in /  1019.6hPa NNW 4mph /  6.4km/h 9mph /  14.5km/h 63% 0in /  0.0mm 0 W/m2
01:50 64.4 °F /  18 °C 51.6 °F /  10.9 °C 30.1in /  1019.6hPa ENE 2.9mph /  4.7km/h 3mph /  4.8km/h 63% 0in /  0.0mm 0 W/m2
01:55 64.2 °F /  17.9 °C 51.4 °F /  10.8 °C 30.1in /  1019.6hPa NNW 0.9mph /  1.4km/h 4mph /  6.4km/h 63% 0in /  0.0mm 0 W/m2
02:00 64 °F /  17.8 °C 51.3 °F /  10.7 °C 30.1in /  1019.6hPa SW 2mph /  3.2km/h 7mph /  11.3km/h 63% 0in /  0.0mm 0 W/m2
02:05 63.9 °F /  17.7 °C 51.1 °F /  10.6 °C 30.1in /  1019.6hPa NNW 0.9mph /  1.4km/h 3mph /  4.8km/h 63% 0in /  0.0mm 0 W/m2
02:10 63.9 °F /  17.7 °C 51.1 °F /  10.6 °C 30.1in /  1019.6hPa NNE 2mph /  3.2km/h 7mph /  11.3km/h 63% 0in /  0.0mm 0 W/m2
02:15 63.7 °F /  17.6 °C 50.9 °F /  10.5 °C 30.1in /  1019.6hPa North 2.9mph /  4.7km/h 3mph /  4.8km/h 63% 0in /  0.0mm 0 W/m2
02:20 63.5 °F /  17.5 °C 50.7 °F /  10.4 °C 30.1in /  1019.6hPa WNW 2mph /  3.2km/h 7mph /  11.3km/h 63% 0in /  0.0mm 0 W/m2
02:30 63.1 °F /  17.3 °C 50.4 °F /  10.2 °C 30.1in /  1019.6hPa NNW 0.9mph /  1.4km/h 7mph /  11.3km/h 63% 0in /  0.0mm 0 W/m2
02:35 63 °F /  17.2 °C 49.8 °F /  9.9 °C 30.1in /  1019.6hPa WSW 2mph /  3.2km/h 3mph /  4.8km/h 62% 0in /  0.0mm 0 W/m2
02:40 63 °F /  17.2 °C 50.2 °F /  10.1 °C 30.1in /  1019.6hPa ESE 0.9mph /  1.4km/h 4mph /  6.4km/h 63% 0in /  0.0mm 0 W/m2
02:45 62.8 °F /  17.1 °C 49.6 °F /  9.8 °C 30.1in /  1020.0hPa NW 2mph /  3.2km/h 4mph /  6.4km/h 62% 0in /  0.0mm 0 W/m2
02:50 62.4 °F /  16.9 °C 49.6 °F /  9.8 °C 30.1in /  1020.0hPa WNW 2mph /  3.2km/h 3mph /  4.8km/h 63% 0in /  0.0mm 0 W/m2
02:55 62.4 °F /  16.9 °C 49.6 °F /  9.8 °C 30.1in /  1019.6hPa North 0.9mph /  1.4km/h 2mph /  3.2km/h 63% 0in /  0.0mm 0 W/m2
03:00 62.2 °F /  16.8 °C 49.5 °F /  9.7 °C 30.1in /  1019.6hPa Calm   2mph /  3.2km/h 63% 0in /  0.0mm 0 W/m2
03:05 62.1 °F /  16.7 °C 49.3 °F /  9.6 °C 30.1in /  1020.0hPa WNW 2mph /  3.2km/h 3mph /  4.8km/h 63% 0in /  0.0mm 0 W/m2
03:10 61.7 °F /  16.5 °C 48.9 °F /  9.4 °C 30.1in /  1020.0hPa West 2mph /  3.2km/h 4mph /  6.4km/h 63% 0in /  0.0mm 0 W/m2
03:15 61.5 °F /  16.4 °C 48.7 °F /  9.3 °C 30.1in /  1019.6hPa NNW 0.9mph /  1.4km/h 5mph /  8km/h 63% 0in /  0.0mm 0 W/m2
03:20 61.3 °F /  16.3 °C 48.6 °F /  9.2 °C 30.1in /  1020.0hPa WNW 0.9mph /  1.4km/h 2mph /  3.2km/h 63% 0in /  0.0mm 0 W/m2
03:25 61.3 °F /  16.3 °C 48.6 °F /  9.2 °C 30.1in /  1019.6hPa WSW 4mph /  6.4km/h 4mph /  6.4km/h 63% 0in /  0.0mm 0 W/m2
03:36 61 °F /  16.1 °C 48.7 °F /  9.3 °C 30.1in /  1020.0hPa ENE 0.9mph /  1.4km/h 4mph /  6.4km/h 64% 0in /  0.0mm 0 W/m2
03:41 60.6 °F /  15.9 °C 48.4 °F /  9.1 °C 30.1in /  1020.0hPa West 2.9mph /  4.7km/h 6mph /  9.7km/h 64% 0in /  0.0mm 0 W/m2
03:46 60.6 °F /  15.9 °C 48.4 °F /  9.1 °C 30.1in /  1020.0hPa NNW 0.9mph /  1.4km/h 3mph /  4.8km/h 64% 0in /  0.0mm 0 W/m2
03:51 60.4 °F /  15.8 °C 48.2 °F /  9 °C 30.1in /  1020.0hPa West 2mph /  3.2km/h 3mph /  4.8km/h 64% 0in /  0.0mm 0 W/m2
03:56 60.3 °F /  15.7 °C 48 °F /  8.9 °C 30.1in /  1020.0hPa WSW 2.9mph /  4.7km/h 4mph /  6.4km/h 64% 0in /  0.0mm 0 W/m2
04:01 60.3 °F /  15.7 °C 48 °F /  8.9 °C 30.1in /  1020.0hPa WNW 2mph /  3.2km/h 2mph /  3.2km/h 64% 0in /  0.0mm 0 W/m2
04:06 60.1 °F /  15.6 °C 47.8 °F /  8.8 °C 30.1in /  1020.0hPa NW 2mph /  3.2km/h 6mph /  9.7km/h 64% 0in /  0.0mm 0 W/m2
04:11 60.1 °F /  15.6 °C 47.8 °F /  8.8 °C 30.1in /  1020.0hPa West 2mph /  3.2km/h 4mph /  6.4km/h 64% 0in /  0.0mm 0 W/m2
04:16 59.9 °F /  15.5 °C 47.7 °F /  8.7 °C 30.1in /  1020.0hPa Calm   4mph /  6.4km/h 64% 0in /  0.0mm 0 W/m2
04:21 59.7 °F /  15.4 °C 47.5 °F /  8.6 °C 30.1in /  1020.0hPa West 4mph /  6.4km/h 8mph /  12.9km/h 64% 0in /  0.0mm 0 W/m2
04:26 59.5 °F /  15.3 °C 47.3 °F /  8.5 °C 30.1in /  1020.0hPa WSW 4mph /  6.4km/h 4mph /  6.4km/h 64% 0in /  0.0mm 0 W/m2
04:31 59.5 °F /  15.3 °C 47.3 °F /  8.5 °C 30.1in /  1020.0hPa NNW 0.9mph /  1.4km/h 7mph /  11.3km/h 64% 0in /  0.0mm 0 W/m2
04:36 59.4 °F /  15.2 °C 47.1 °F /  8.4 °C 30.1in /  1020.0hPa NNW 0.9mph /  1.4km/h 3mph /  4.8km/h 64% 0in /  0.0mm 0 W/m2
04:41 59.4 °F /  15.2 °C 47.7 °F /  8.7 °C 30.1in /  1020.0hPa WSW 2.9mph /  4.7km/h 7mph /  11.3km/h 65% 0in /  0.0mm 0 W/m2
04:46 59.2 °F /  15.1 °C 47.5 °F /  8.6 °C 30.1in /  1020.0hPa NW 0.9mph /  1.4km/h 4mph /  6.4km/h 65% 0in /  0.0mm 0 W/m2
04:51 59.2 °F /  15.1 °C 47.5 °F /  8.6 °C 30.1in /  1020.0hPa WSW 2.9mph /  4.7km/h 7mph /  11.3km/h 65% 0in /  0.0mm 0 W/m2
04:56 59 °F /  15 °C 47.3 °F /  8.5 °C 30.1in /  1020.0hPa WNW 2mph /  3.2km/h 3mph /  4.8km/h 65% 0in /  0.0mm 0 W/m2
05:01 59 °F /  15 °C 47.3 °F /  8.5 °C 30.1in /  1020.0hPa WSW 2mph /  3.2km/h 3mph /  4.8km/h 65% 0in /  0.0mm 0 W/m2
05:06 58.8 °F /  14.9 °C 47.1 °F /  8.4 °C 30.1in /  1020.0hPa WNW 2mph /  3.2km/h 7mph /  11.3km/h 65% 0in /  0.0mm 0 W/m2
05:11 58.8 °F /  14.9 °C 47.1 °F /  8.4 °C 30.1in /  1020.0hPa NE 0.9mph /  1.4km/h 8mph /  12.9km/h 65% 0in /  0.0mm 0 W/m2
05:16 58.8 °F /  14.9 °C 47.1 °F /  8.4 °C 30.1in /  1020.0hPa North 2.9mph /  4.7km/h 5mph /  8km/h 65% 0in /  0.0mm 0 W/m2
05:21 59 °F /  15 °C 47.3 °F /  8.5 °C 30.1in /  1020.0hPa West 4mph /  6.4km/h 4mph /  6.4km/h 65% 0in /  0.0mm 0 W/m2
05:26 59.2 °F /  15.1 °C 47.5 °F /  8.6 °C 30.1in /  1020.0hPa NW 2.9mph /  4.7km/h 6mph /  9.7km/h 65% 0in /  0.0mm 0 W/m2
05:31 59.4 °F /  15.2 °C 47.7 °F /  8.7 °C 30.1in /  1020.0hPa WNW 2.9mph /  4.7km/h 6mph /  9.7km/h 65% 0in /  0.0mm 0 W/m2
05:36 59.4 °F /  15.2 °C 47.7 °F /  8.7 °C 30.1in /  1020.0hPa WNW 2.9mph /  4.7km/h 4mph /  6.4km/h 65% 0in /  0.0mm 0 W/m2
05:41 59.4 °F /  15.2 °C 47.7 °F /  8.7 °C 30.1in /  1020.0hPa NW 2mph /  3.2km/h 6mph /  9.7km/h 65% 0in /  0.0mm 0 W/m2
05:46 59.4 °F /  15.2 °C 47.7 °F /  8.7 °C 30.1in /  1020.0hPa North 0.9mph /  1.4km/h 3mph /  4.8km/h 65% 0in /  0.0mm 0 W/m2
05:51 59.5 °F /  15.3 °C 47.8 °F /  8.8 °C 30.1in /  1020.0hPa WNW 0.9mph /  1.4km/h 5mph /  8km/h 65% 0in /  0.0mm 0 W/m2
05:56 59.4 °F /  15.2 °C 47.7 °F /  8.7 °C 30.1in /  1020.0hPa WNW 2mph /  3.2km/h 3mph /  4.8km/h 65% 0in /  0.0mm 0 W/m2
06:01 59.4 °F /  15.2 °C 47.7 °F /  8.7 °C 30.1in /  1020.3hPa WNW 4mph /  6.4km/h 4mph /  6.4km/h 65% 0in /  0.0mm 0 W/m2
06:06 59.4 °F /  15.2 °C 47.7 °F /  8.7 °C 30.1in /  1020.0hPa South 4.9mph /  7.9km/h 5mph /  8km/h 65% 0in /  0.0mm 5 W/m2
06:11 59.4 °F /  15.2 °C 47.7 °F /  8.7 °C 30.1in /  1020.3hPa Calm   2mph /  3.2km/h 65% 0in /  0.0mm 7 W/m2
06:16 59.4 °F /  15.2 °C 47.7 °F /  8.7 °C 30.1in /  1020.3hPa NNW 2.9mph /  4.7km/h 7mph /  11.3km/h 65% 0in /  0.0mm 9 W/m2
06:21 59.2 °F /  15.1 °C 47.5 °F /  8.6 °C 30.1in /  1020.0hPa SW 0.9mph /  1.4km/h 2mph /  3.2km/h 65% 0in /  0.0mm 12 W/m2
06:26 59.2 °F /  15.1 °C 47.8 °F /  8.8 °C 30.1in /  1020.0hPa NW 0.9mph /  1.4km/h 3mph /  4.8km/h 66% 0in /  0.0mm 16 W/m2
06:31 59.2 °F /  15.1 °C 47.8 °F /  8.8 °C 30.1in /  1020.0hPa NNW 2mph /  3.2km/h 4mph /  6.4km/h 66% 0in /  0.0mm 21 W/m2
06:36 59.2 °F /  15.1 °C 47.8 °F /  8.8 °C 30.1in /  1020.0hPa WNW 4mph /  6.4km/h 9mph /  14.5km/h 66% 0in /  0.0mm 26 W/m2
06:41 59 °F /  15 °C 47.7 °F /  8.7 °C 30.1in /  1020.3hPa WNW 0.9mph /  1.4km/h 5mph /  8km/h 66% 0in /  0.0mm 32 W/m2
06:46 58.8 °F /  14.9 °C 47.8 °F /  8.8 °C 30.1in /  1020.3hPa NNW 4mph /  6.4km/h 9mph /  14.5km/h 67% 0in /  0.0mm 39 W/m2
06:51 58.8 °F /  14.9 °C 47.8 °F /  8.8 °C 30.1in /  1020.3hPa SW 0.9mph /  1.4km/h 2mph /  3.2km/h 67% 0in /  0.0mm 46 W/m2
06:56 58.8 °F /  14.9 °C 47.8 °F /  8.8 °C 30.1in /  1020.3hPa NW 0.9mph /  1.4km/h 2mph /  3.2km/h 67% 0in /  0.0mm 53 W/m2
07:01 58.8 °F /  14.9 °C 47.8 °F /  8.8 °C 30.1in /  1020.3hPa Calm   2mph /  3.2km/h 67% 0in /  0.0mm 58 W/m2
07:06 58.8 °F /  14.9 °C 47.8 °F /  8.8 °C 30.1in /  1020.3hPa Calm   8mph /  12.9km/h 67% 0in /  0.0mm 54 W/m2
07:11 58.8 °F /  14.9 °C 47.8 °F /  8.8 °C 30.1in /  1020.3hPa NNW 0.9mph /  1.4km/h 5mph /  8km/h 67% 0in /  0.0mm 46 W/m2
07:16 58.8 °F /  14.9 °C 47.8 °F /  8.8 °C 30.1in /  1020.3hPa North 2mph /  3.2km/h 4mph /  6.4km/h 67% 0in /  0.0mm 39 W/m2
07:21 58.8 °F /  14.9 °C 48.2 °F /  9 °C 30.1in /  1020.7hPa NW 2mph /  3.2km/h 5mph /  8km/h 68% 0in /  0.0mm 40 W/m2
07:26 58.8 °F /  14.9 °C 48.2 °F /  9 °C 30.1in /  1020.7hPa NW 2mph /  3.2km/h 4mph /  6.4km/h 68% 0in /  0.0mm 39 W/m2
07:31 58.8 °F /  14.9 °C 48.2 °F /  9 °C 30.1in /  1020.7hPa SSE 0.9mph /  1.4km/h 5mph /  8km/h 68% 0in /  0.0mm 39 W/m2
07:36 58.8 °F /  14.9 °C 48.2 °F /  9 °C 30.1in /  1020.7hPa WNW 2mph /  3.2km/h 7mph /  11.3km/h 68% 0in /  0.0mm 39 W/m2
07:41 59 °F /  15 °C 48.4 °F /  9.1 °C 30.1in /  1020.7hPa WNW 2.9mph /  4.7km/h 6mph /  9.7km/h 68% 0in /  0.0mm 39 W/m2
07:46 59.2 °F /  15.1 °C 48.6 °F /  9.2 °C 30.1in /  1020.7hPa East 2mph /  3.2km/h 2mph /  3.2km/h 68% 0in /  0.0mm 40 W/m2
07:51 59.2 °F /  15.1 °C 48.6 °F /  9.2 °C 30.1in /  1020.7hPa NNW 8.1mph /  13km/h 8mph /  12.9km/h 68% 0in /  0.0mm 40 W/m2
07:56 59.5 °F /  15.3 °C 48.9 °F /  9.4 °C 30.1in /  1020.7hPa NW 2.9mph /  4.7km/h 6mph /  9.7km/h 68% 0in /  0.0mm 165 W/m2
08:01 59.7 °F /  15.4 °C 49.1 °F /  9.5 °C 30.1in /  1020.7hPa NW 2.9mph /  4.7km/h 4mph /  6.4km/h 68% 0in /  0.0mm 229 W/m2
08:06 60.1 °F /  15.6 °C 49.1 °F /  9.5 °C 30.1in /  1020.7hPa NW 0.9mph /  1.4km/h 6mph /  9.7km/h 67% 0in /  0.0mm 244 W/m2
08:11 60.3 °F /  15.7 °C 49.3 °F /  9.6 °C 30.1in /  1020.7hPa NNW 0.9mph /  1.4km/h 2mph /  3.2km/h 67% 0in /  0.0mm 258 W/m2
08:16 60.8 °F /  16 °C 49.8 °F /  9.9 °C 30.2in /  1021.0hPa NNW 0.9mph /  1.4km/h 6mph /  9.7km/h 67% 0in /  0.0mm 271 W/m2
08:21 61 °F /  16.1 °C 49.5 °F /  9.7 °C 30.2in /  1021.0hPa ENE 2.9mph /  4.7km/h 4mph /  6.4km/h 66% 0in /  0.0mm 287 W/m2
08:26 61.2 °F /  16.2 °C 49.6 °F /  9.8 °C 30.2in /  1021.0hPa NNW 4mph /  6.4km/h 6mph /  9.7km/h 66% 0in /  0.0mm 239 W/m2
08:31 61.3 °F /  16.3 °C 49.8 °F /  9.9 °C 30.2in /  1021.0hPa North 2.9mph /  4.7km/h 3mph /  4.8km/h 66% 0in /  0.0mm 97 W/m2
08:42 61.9 °F /  16.6 °C 50 °F /  10 °C 30.2in /  1021.0hPa NE 4mph /  6.4km/h 5mph /  8km/h 65% 0in /  0.0mm 51 W/m2
08:47 62.4 °F /  16.9 °C 50 °F /  10 °C 30.2in /  1021.0hPa NNE 2mph /  3.2km/h 6mph /  9.7km/h 64% 0in /  0.0mm 51 W/m2
08:52 63.1 °F /  17.3 °C 50.7 °F /  10.4 °C 30.2in /  1021.0hPa WNW 6.9mph /  11.1km/h 7mph /  11.3km/h 64% 0in /  0.0mm 51 W/m2
08:57 63 °F /  17.2 °C 50.5 °F /  10.3 °C 30.2in /  1021.0hPa NW 8.9mph /  14.3km/h 9mph /  14.5km/h 64% 0in /  0.0mm 51 W/m2
09:02 63 °F /  17.2 °C 50.5 °F /  10.3 °C 30.2in /  1021.0hPa West 4mph /  6.4km/h 7mph /  11.3km/h 64% 0in /  0.0mm 51 W/m2
09:07 63.1 °F /  17.3 °C 51.3 °F /  10.7 °C 30.2in /  1021.0hPa East 0.9mph /  1.4km/h 2mph /  3.2km/h 65% 0in /  0.0mm 53 W/m2
09:12 63.9 °F /  17.7 °C 51.1 °F /  10.6 °C 30.2in /  1021.3hPa NNW 0.9mph /  1.4km/h 3mph /  4.8km/h 63% 0in /  0.0mm 54 W/m2
09:17 64.2 °F /  17.9 °C 51.4 °F /  10.8 °C 30.2in /  1021.3hPa North 2mph /  3.2km/h 6mph /  9.7km/h 63% 0in /  0.0mm 127 W/m2
09:22 64.8 °F /  18.2 °C 51.4 °F /  10.8 °C 30.2in /  1021.3hPa East 2mph /  3.2km/h 6mph /  9.7km/h 62% 0in /  0.0mm 374 W/m2
09:27 65.1 °F /  18.4 °C 51.3 °F /  10.7 °C 30.2in /  1021.3hPa NW 0.9mph /  1.4km/h 4mph /  6.4km/h 61% 0in /  0.0mm 452 W/m2
09:32 65.5 °F /  18.6 °C 51.6 °F /  10.9 °C 30.2in /  1021.3hPa East 2.9mph /  4.7km/h 3mph /  4.8km/h 61% 0in /  0.0mm 464 W/m2
09:37 65.8 °F /  18.8 °C 51.6 °F /  10.9 °C 30.2in /  1021.3hPa NE 0.9mph /  1.4km/h 4mph /  6.4km/h 60% 0in /  0.0mm 496 W/m2
09:42 66 °F /  18.9 °C 51.3 °F /  10.7 °C 30.2in /  1021.3hPa NNW 0.9mph /  1.4km/h 9mph /  14.5km/h 59% 0in /  0.0mm 508 W/m2
09:47 66.4 °F /  19.1 °C 51.6 °F /  10.9 °C 30.2in /  1021.3hPa West 2.9mph /  4.7km/h 5mph /  8km/h 59% 0in /  0.0mm 522 W/m2
09:52 66.7 °F /  19.3 °C 52 °F /  11.1 °C 30.2in /  1021.3hPa NNE 2.9mph /  4.7km/h 9mph /  14.5km/h 59% 0in /  0.0mm 534 W/m2
09:57 66.9 °F /  19.4 °C 51.6 °F /  10.9 °C 30.2in /  1021.3hPa NNW 2mph /  3.2km/h 11mph /  17.7km/h 58% 0in /  0.0mm 548 W/m2
10:02 66.9 °F /  19.4 °C 52.2 °F /  11.2 °C 30.2in /  1021.3hPa ESE 2.9mph /  4.7km/h 7mph /  11.3km/h 59% 0in /  0.0mm 476 W/m2
10:08 66.9 °F /  19.4 °C 51.6 °F /  10.9 °C 30.2in /  1021.3hPa East 2mph /  3.2km/h 9mph /  14.5km/h 58% 0in /  0.0mm 65 W/m2
10:13 67.3 °F /  19.6 °C 52.5 °F /  11.4 °C 30.2in /  1021.3hPa NE 6mph /  9.7km/h 6mph /  9.7km/h 59% 0in /  0.0mm 146 W/m2
10:18 67.6 °F /  19.8 °C 52.3 °F /  11.3 °C 30.2in /  1021.3hPa ENE 0.9mph /  1.4km/h 9mph /  14.5km/h 58% 0in /  0.0mm 591 W/m2
10:23 67.8 °F /  19.9 °C 52 °F /  11.1 °C 30.2in /  1021.3hPa NW 4mph /  6.4km/h 4mph /  6.4km/h 57% 0in /  0.0mm 606 W/m2
10:28 68 °F /  20 °C 52.2 °F /  11.2 °C 30.2in /  1021.3hPa SE 2.9mph /  4.7km/h 7mph /  11.3km/h 57% 0in /  0.0mm 621 W/m2
10:33 68.5 °F /  20.3 °C 52.2 °F /  11.2 °C 30.2in /  1021.3hPa NW 2.9mph /  4.7km/h 3mph /  4.8km/h 56% 0in /  0.0mm 633 W/m2
10:38 69.1 °F /  20.6 °C 51.8 °F /  11 °C 30.2in /  1021.3hPa NE 2mph /  3.2km/h 4mph /  6.4km/h 54% 0in /  0.0mm 643 W/m2
10:43 69.3 °F /  20.7 °C 52 °F /  11.1 °C 30.2in /  1021.3hPa East 2mph /  3.2km/h 3mph /  4.8km/h 54% 0in /  0.0mm 657 W/m2
10:48 69.3 °F /  20.7 °C 51.4 °F /  10.8 °C 30.2in /  1021.3hPa South 2mph /  3.2km/h 4mph /  6.4km/h 53% 0in /  0.0mm 666 W/m2
10:53 69.6 °F /  20.9 °C 52.2 °F /  11.2 °C 30.2in /  1021.3hPa SE 2.9mph /  4.7km/h 4mph /  6.4km/h 54% 0in /  0.0mm 680 W/m2
10:58 69.8 °F /  21 °C 50.9 °F /  10.5 °C 30.2in /  1021.3hPa NNW 2mph /  3.2km/h 4mph /  6.4km/h 51% 0in /  0.0mm 691 W/m2
11:03 69.8 °F /  21 °C 50.9 °F /  10.5 °C 30.2in /  1021.3hPa North 2mph /  3.2km/h 4mph /  6.4km/h 51% 0in /  0.0mm 701 W/m2
11:08 70 °F /  21.1 °C 51.6 °F /  10.9 °C 30.2in /  1021.3hPa WSW 0.9mph /  1.4km/h 4mph /  6.4km/h 52% 0in /  0.0mm 707 W/m2
11:13 70.2 °F /  21.2 °C 50.2 °F /  10.1 °C 30.2in /  1021.3hPa ESE 2mph /  3.2km/h 6mph /  9.7km/h 49% 0in /  0.0mm 722 W/m2
11:18 70.2 °F /  21.2 °C 51.3 °F /  10.7 °C 30.2in /  1021.3hPa ENE 8.1mph /  13km/h 10mph /  16.1km/h 51% 0in /  0.0mm 731 W/m2
11:23 70.2 °F /  21.2 °C 50.7 °F /  10.4 °C 30.2in /  1021.3hPa East 6mph /  9.7km/h 9mph /  14.5km/h 50% 0in /  0.0mm 742 W/m2
11:28 70.5 °F /  21.4 °C 50.4 °F /  10.2 °C 30.2in /  1021.3hPa ESE 4mph /  6.4km/h 4mph /  6.4km/h 49% 0in /  0.0mm 752 W/m2
11:33 70.5 °F /  21.4 °C 50.9 °F /  10.5 °C 30.2in /  1021.3hPa NNW 2.9mph /  4.7km/h 9mph /  14.5km/h 50% 0in /  0.0mm 761 W/m2
11:38 71.1 °F /  21.7 °C 51.4 °F /  10.8 °C 30.2in /  1021.3hPa ENE 2.9mph /  4.7km/h 7mph /  11.3km/h 50% 0in /  0.0mm 772 W/m2
11:43 71.2 °F /  21.8 °C 51.1 °F /  10.6 °C 30.2in /  1021.0hPa NNW 2mph /  3.2km/h 8mph /  12.9km/h 49% 0in /  0.0mm 779 W/m2
11:48 71.8 °F /  22.1 °C 51.6 °F /  10.9 °C 30.2in /  1021.0hPa East 6mph /  9.7km/h 8mph /  12.9km/h 49% 0in /  0.0mm 788 W/m2
11:53 72 °F /  22.2 °C 52.3 °F /  11.3 °C 30.2in /  1021.0hPa ENE 2.9mph /  4.7km/h 6mph /  9.7km/h 50% 0in /  0.0mm 795 W/m2
11:58 71.8 °F /  22.1 °C 51.6 °F /  10.9 °C 30.2in /  1021.0hPa NW 2.9mph /  4.7km/h 5mph /  8km/h 49% 0in /  0.0mm 805 W/m2
12:03 72 °F /  22.2 °C 51.8 °F /  11 °C 30.2in /  1021.0hPa ESE 0.9mph /  1.4km/h 3mph /  4.8km/h 49% 0in /  0.0mm 810 W/m2
12:09 72.3 °F /  22.4 °C 50.9 °F /  10.5 °C 30.2in /  1021.0hPa WNW 2mph /  3.2km/h 4mph /  6.4km/h 47% 0in /  0.0mm 821 W/m2
12:14 72.7 °F /  22.6 °C 51.3 °F /  10.7 °C 30.2in /  1021.3hPa West 2.9mph /  4.7km/h 5mph /  8km/h 47% 0in /  0.0mm 823 W/m2
12:19 73 °F /  22.8 °C 51.6 °F /  10.9 °C 30.2in /  1021.3hPa North 2mph /  3.2km/h 5mph /  8km/h 47% 0in /  0.0mm 838 W/m2
12:24 73.6 °F /  23.1 °C 51.4 °F /  10.8 °C 30.2in /  1021.0hPa West 0.9mph /  1.4km/h 3mph /  4.8km/h 46% 0in /  0.0mm 844 W/m2
12:29 73.8 °F /  23.2 °C 50.5 °F /  10.3 °C 30.2in /  1021.0hPa West 0.9mph /  1.4km/h 6mph /  9.7km/h 44% 0in /  0.0mm 842 W/m2
12:34 73.6 °F /  23.1 °C 50.4 °F /  10.2 °C 30.2in /  1021.0hPa NW 2.9mph /  4.7km/h 7mph /  11.3km/h 44% 0in /  0.0mm 844 W/m2
12:39 73.6 °F /  23.1 °C 50.4 °F /  10.2 °C 30.2in /  1021.0hPa ESE 0.9mph /  1.4km/h 7mph /  11.3km/h 44% 0in /  0.0mm 858 W/m2
12:44 74.1 °F /  23.4 °C 51.4 °F /  10.8 °C 30.2in /  1021.0hPa ENE 0.9mph /  1.4km/h 4mph /  6.4km/h 45% 0in /  0.0mm 861 W/m2
12:49 74.7 °F /  23.7 °C 51.3 °F /  10.7 °C 30.2in /  1021.0hPa Calm   3mph /  4.8km/h 44% 0in /  0.0mm 863 W/m2
12:54 74.7 °F /  23.7 °C 50 °F /  10 °C 30.2in /  1021.0hPa NW 2mph /  3.2km/h 4mph /  6.4km/h 42% 0in /  0.0mm 860 W/m2
12:59 74.7 °F /  23.7 °C 50 °F /  10 °C 30.2in /  1021.0hPa NNW 6mph /  9.7km/h 8mph /  12.9km/h 42% 0in /  0.0mm 872 W/m2
13:04 74.7 °F /  23.7 °C 49.5 °F /  9.7 °C 30.2in /  1021.0hPa West 2.9mph /  4.7km/h 5mph /  8km/h 41% 0in /  0.0mm 881 W/m2
13:09 74.1 °F /  23.4 °C 48.9 °F /  9.4 °C 30.2in /  1021.0hPa NW 2.9mph /  4.7km/h 10mph /  16.1km/h 41% 0in /  0.0mm 884 W/m2
13:14 74.5 °F /  23.6 °C 47.8 °F /  8.8 °C 30.2in /  1021.0hPa North 2.9mph /  4.7km/h 5mph /  8km/h 39% 0in /  0.0mm 882 W/m2
13:19 75 °F /  23.9 °C 47.7 °F /  8.7 °C 30.2in /  1021.0hPa ENE 2.9mph /  4.7km/h 8mph /  12.9km/h 38% 0in /  0.0mm 891 W/m2
13:24 75.4 °F /  24.1 °C 48 °F /  8.9 °C 30.2in /  1021.0hPa NE 6mph /  9.7km/h 6mph /  9.7km/h 38% 0in /  0.0mm 889 W/m2
13:29 75.7 °F /  24.3 °C 46.9 °F /  8.3 °C 30.2in /  1021.0hPa NE 2mph /  3.2km/h 5mph /  8km/h 36% 0in /  0.0mm 893 W/m2
13:34 75.9 °F /  24.4 °C 47.8 °F /  8.8 °C 30.2in /  1021.0hPa WSW 2.9mph /  4.7km/h 4mph /  6.4km/h 37% 0in /  0.0mm 889 W/m2
13:39 75.6 °F /  24.2 °C 47.5 °F /  8.6 °C 30.1in /  1020.7hPa West 2.9mph /  4.7km/h 5mph /  8km/h 37% 0in /  0.0mm 893 W/m2
13:44 75.4 °F /  24.1 °C 47.3 °F /  8.5 °C 30.1in /  1020.7hPa North 4.9mph /  7.9km/h 8mph /  12.9km/h 37% 0in /  0.0mm 896 W/m2
13:49 75.4 °F /  24.1 °C 45.9 °F /  7.7 °C 30.1in /  1020.7hPa West 4mph /  6.4km/h 8mph /  12.9km/h 35% 0in /  0.0mm 896 W/m2
13:54 75.4 °F /  24.1 °C 46.6 °F /  8.1 °C 30.1in /  1020.7hPa WSW 4.9mph /  7.9km/h 7mph /  11.3km/h 36% 0in /  0.0mm 898 W/m2
13:59 75.4 °F /  24.1 °C 47.3 °F /  8.5 °C 30.1in /  1020.7hPa WSW 2.9mph /  4.7km/h 9mph /  14.5km/h 37% 0in /  0.0mm 893 W/m2
14:04 75.7 °F /  24.3 °C 46.9 °F /  8.3 °C 30.1in /  1020.7hPa East 0.9mph /  1.4km/h 4mph /  6.4km/h 36% 0in /  0.0mm 898 W/m2
14:09 76.1 °F /  24.5 °C 45 °F /  7.2 °C 30.1in /  1020.7hPa NE 2mph /  3.2km/h 8mph /  12.9km/h 33% 0in /  0.0mm 905 W/m2
14:14 76.3 °F /  24.6 °C 42.6 °F /  5.9 °C 30.1in /  1020.7hPa ESE 0.9mph /  1.4km/h 5mph /  8km/h 30% 0in /  0.0mm 904 W/m2
14:19 76.5 °F /  24.7 °C 44.4 °F /  6.9 °C 30.1in /  1020.7hPa West 4mph /  6.4km/h 8mph /  12.9km/h 32% 0in /  0.0mm 895 W/m2
14:24 77 °F /  25 °C 46.4 °F /  8 °C 30.1in /  1020.7hPa SE 2.9mph /  4.7km/h 6mph /  9.7km/h 34% 0in /  0.0mm 888 W/m2
14:29 77.2 °F /  25.1 °C 46.6 °F /  8.1 °C 30.1in /  1020.7hPa North 2mph /  3.2km/h 7mph /  11.3km/h 34% 0in /  0.0mm 889 W/m2
14:34 77.2 °F /  25.1 °C 46.6 °F /  8.1 °C 30.1in /  1020.7hPa SE 2mph /  3.2km/h 7mph /  11.3km/h 34% 0in /  0.0mm 881 W/m2
14:39 77.5 °F /  25.3 °C 44.6 °F /  7 °C 30.1in /  1020.7hPa WNW 2.9mph /  4.7km/h 4mph /  6.4km/h 31% 0in /  0.0mm 877 W/m2
14:44 77.5 °F /  25.3 °C 45.3 °F /  7.4 °C 30.1in /  1020.7hPa ENE 2mph /  3.2km/h 3mph /  4.8km/h 32% 0in /  0.0mm 879 W/m2
Juneau County Weather
Compliments of Weather Underground - 4 mb